sensor_id;sensor_type;location;lat;lon;timestamp;temperature;humidity
3980;DHT22;2004;52.452;13.120;2023-12-29T00:03:35;8.20;99.90
3980;DHT22;2004;52.452;13.120;2023-12-29T00:11:26;8.30;99.90
3980;DHT22;2004;52.452;13.120;2023-12-29T00:19:16;8.30;99.90
3980;DHT22;2004;52.452;13.120;2023-12-29T00:27:07;8.30;99.90
3980;DHT22;2004;52.452;13.120;2023-12-29T00:34:58;8.40;99.90
3980;DHT22;2004;52.452;13.120;2023-12-29T00:42:54;8.40;99.90
3980;DHT22;2004;52.452;13.120;2023-12-29T00:50:46;8.40;99.90
3980;DHT22;2004;52.452;13.120;2023-12-29T00:58:37;8.50;99.90
3980;DHT22;2004;52.452;13.120;2023-12-29T01:06:31;8.50;99.90
3980;DHT22;2004;52.452;13.120;2023-12-29T01:14:22;8.50;99.90
3980;DHT22;2004;52.452;13.120;2023-12-29T01:22:13;8.50;99.90
3980;DHT22;2004;52.452;13.120;2023-12-29T01:30:05;8.50;99.90
3980;DHT22;2004;52.452;13.120;2023-12-29T01:37:56;8.50;99.90
3980;DHT22;2004;52.452;13.120;2023-12-29T01:45:47;8.50;99.90
3980;DHT22;2004;52.452;13.120;2023-12-29T01:53:39;8.50;99.90
3980;DHT22;2004;52.452;13.120;2023-12-29T02:01:30;8.50;99.90
3980;DHT22;2004;52.452;13.120;2023-12-29T02:09:22;8.60;99.90
3980;DHT22;2004;52.452;13.120;2023-12-29T02:17:17;8.50;99.90
3980;DHT22;2004;52.452;13.120;2023-12-29T02:25:10;8.60;99.90
3980;DHT22;2004;52.452;13.120;2023-12-29T02:33:05;8.50;99.90
3980;DHT22;2004;52.452;13.120;2023-12-29T02:40:58;8.60;99.90
3980;DHT22;2004;52.452;13.120;2023-12-29T02:48:49;8.50;99.90
3980;DHT22;2004;52.452;13.120;2023-12-29T02:56:41;8.60;99.90
3980;DHT22;2004;52.452;13.120;2023-12-29T03:04:31;8.60;99.90
3980;DHT22;2004;52.452;13.120;2023-12-29T03:12:22;8.60;99.90
3980;DHT22;2004;52.452;13.120;2023-12-29T03:20:13;8.50;99.90
3980;DHT22;2004;52.452;13.120;2023-12-29T03:28:04;8.50;99.90
3980;DHT22;2004;52.452;13.120;2023-12-29T03:35:55;8.50;99.90
3980;DHT22;2004;52.452;13.120;2023-12-29T03:43:47;8.60;99.90
3980;DHT22;2004;52.452;13.120;2023-12-29T03:51:38;8.60;99.90
3980;DHT22;2004;52.452;13.120;2023-12-29T03:59:30;8.60;99.90
3980;DHT22;2004;52.452;13.120;2023-12-29T04:07:22;8.60;99.90
3980;DHT22;2004;52.452;13.120;2023-12-29T04:15:13;8.60;99.90
3980;DHT22;2004;52.452;13.120;2023-12-29T04:23:06;8.70;99.90
3980;DHT22;2004;52.452;13.120;2023-12-29T04:30:57;8.70;99.90
3980;DHT22;2004;52.452;13.120;2023-12-29T04:38:52;8.70;99.90
3980;DHT22;2004;52.452;13.120;2023-12-29T04:46:43;8.80;99.90
3980;DHT22;2004;52.452;13.120;2023-12-29T04:54:33;8.80;99.90
3980;DHT22;2004;52.452;13.120;2023-12-29T05:02:28;8.90;99.90
3980;DHT22;2004;52.452;13.120;2023-12-29T05:10:18;8.90;99.90
3980;DHT22;2004;52.452;13.120;2023-12-29T05:18:11;8.90;99.90
3980;DHT22;2004;52.452;13.120;2023-12-29T05:26:01;8.90;99.90
3980;DHT22;2004;52.452;13.120;2023-12-29T05:33:52;8.80;99.90
3980;DHT22;2004;52.452;13.120;2023-12-29T05:41:44;8.90;99.90
3980;DHT22;2004;52.452;13.120;2023-12-29T05:49:34;8.90;99.90
3980;DHT22;2004;52.452;13.120;2023-12-29T05:57:29;8.90;99.90
3980;DHT22;2004;52.452;13.120;2023-12-29T06:05:20;8.90;99.90
3980;DHT22;2004;52.452;13.120;2023-12-29T06:13:11;8.90;99.90
3980;DHT22;2004;52.452;13.120;2023-12-29T06:21:02;8.90;99.90
3980;DHT22;2004;52.452;13.120;2023-12-29T06:28:56;8.90;99.90
3980;DHT22;2004;52.452;13.120;2023-12-29T06:36:46;9.00;99.90
3980;DHT22;2004;52.452;13.120;2023-12-29T06:44:37;9.10;99.90
3980;DHT22;2004;52.452;13.120;2023-12-29T06:52:28;9.20;99.90
3980;DHT22;2004;52.452;13.120;2023-12-29T07:00:24;9.20;99.90
3980;DHT22;2004;52.452;13.120;2023-12-29T07:08:17;9.20;99.90
3980;DHT22;2004;52.452;13.120;2023-12-29T07:16:14;9.20;99.90
3980;DHT22;2004;52.452;13.120;2023-12-29T07:24:15;9.20;99.90
3980;DHT22;2004;52.452;13.120;2023-12-29T07:32:17;9.20;99.90
3980;DHT22;2004;52.452;13.120;2023-12-29T07:40:19;9.20;99.90
3980;DHT22;2004;52.452;13.120;2023-12-29T07:48:12;9.30;99.90
3980;DHT22;2004;52.452;13.120;2023-12-29T08:04:28;9.30;99.90
3980;DHT22;2004;52.452;13.120;2023-12-29T08:12:20;9.30;99.90
3980;DHT22;2004;52.452;13.120;2023-12-29T08:20:20;9.40;99.90
3980;DHT22;2004;52.452;13.120;2023-12-29T08:28:20;9.50;99.90
3980;DHT22;2004;52.452;13.120;2023-12-29T08:36:33;9.50;99.90
3980;DHT22;2004;52.452;13.120;2023-12-29T08:44:34;9.60;99.90
3980;DHT22;2004;52.452;13.120;2023-12-29T08:53:21;9.60;99.90
3980;DHT22;2004;52.452;13.120;2023-12-29T09:01:18;9.70;99.90
3980;DHT22;2004;52.452;13.120;2023-12-29T09:09:22;9.70;99.90
3980;DHT22;2004;52.452;13.120;2023-12-29T09:17:55;9.80;99.90
3980;DHT22;2004;52.452;13.120;2023-12-29T09:26:19;9.80;99.90
3980;DHT22;2004;52.452;13.120;2023-12-29T09:34:15;9.90;99.90
3980;DHT22;2004;52.452;13.120;2023-12-29T09:42:20;10.00;99.90
3980;DHT22;2004;52.452;13.120;2023-12-29T09:50:19;10.00;99.90
3980;DHT22;2004;52.452;13.120;2023-12-29T09:58:13;10.10;99.90
3980;DHT22;2004;52.452;13.120;2023-12-29T10:06:24;10.20;99.90
3980;DHT22;2004;52.452;13.120;2023-12-29T10:23:26;10.30;99.90
3980;DHT22;2004;52.452;13.120;2023-12-29T10:31:35;10.40;99.90
3980;DHT22;2004;52.452;13.120;2023-12-29T10:40:02;10.50;99.90
3980;DHT22;2004;52.452;13.120;2023-12-29T10:57:00;10.70;99.90
3980;DHT22;2004;52.452;13.120;2023-12-29T11:05:08;10.80;99.90
3980;DHT22;2004;52.452;13.120;2023-12-29T11:13:05;10.80;99.90
3980;DHT22;2004;52.452;13.120;2023-12-29T11:21:01;10.90;99.90
3980;DHT22;2004;52.452;13.120;2023-12-29T11:28:56;10.90;99.90
3980;DHT22;2004;52.452;13.120;2023-12-29T11:36:50;10.90;99.90
3980;DHT22;2004;52.452;13.120;2023-12-29T11:44:51;10.90;99.90
3980;DHT22;2004;52.452;13.120;2023-12-29T11:52:55;10.90;99.90
3980;DHT22;2004;52.452;13.120;2023-12-29T12:00:55;10.90;99.90
3980;DHT22;2004;52.452;13.120;2023-12-29T12:09:23;10.90;99.90
3980;DHT22;2004;52.452;13.120;2023-12-29T12:17:50;10.90;99.90
3980;DHT22;2004;52.452;13.120;2023-12-29T12:25:46;10.90;99.90
3980;DHT22;2004;52.452;13.120;2023-12-29T12:33:52;10.80;99.90
3980;DHT22;2004;52.452;13.120;2023-12-29T12:41:45;10.80;99.90
3980;DHT22;2004;52.452;13.120;2023-12-29T12:49:36;10.70;99.90
3980;DHT22;2004;52.452;13.120;2023-12-29T12:57:27;10.70;99.90
3980;DHT22;2004;52.452;13.120;2023-12-29T13:05:18;10.70;99.90
3980;DHT22;2004;52.452;13.120;2023-12-29T13:13:12;10.70;99.90
3980;DHT22;2004;52.452;13.120;2023-12-29T13:21:17;10.70;99.90
3980;DHT22;2004;52.452;13.120;2023-12-29T13:29:41;10.70;99.90
3980;DHT22;2004;52.452;13.120;2023-12-29T13:37:45;10.60;99.90
3980;DHT22;2004;52.452;13.120;2023-12-29T13:45:50;10.70;99.90
3980;DHT22;2004;52.452;13.120;2023-12-29T13:54:33;10.70;99.90
3980;DHT22;2004;52.452;13.120;2023-12-29T14:11:12;10.70;99.90
3980;DHT22;2004;52.452;13.120;2023-12-29T14:19:13;10.70;99.90
3980;DHT22;2004;52.452;13.120;2023-12-29T14:27:07;10.70;99.90
3980;DHT22;2004;52.452;13.120;2023-12-29T14:35:00;10.70;99.90
3980;DHT22;2004;52.452;13.120;2023-12-29T14:43:00;10.80;99.90
3980;DHT22;2004;52.452;13.120;2023-12-29T14:50:52;10.80;99.90
3980;DHT22;2004;52.452;13.120;2023-12-29T14:58:51;10.80;99.90
3980;DHT22;2004;52.452;13.120;2023-12-29T15:06:50;10.80;99.90
3980;DHT22;2004;52.452;13.120;2023-12-29T15:14:47;10.80;99.90
3980;DHT22;2004;52.452;13.120;2023-12-29T15:22:52;10.70;99.90
3980;DHT22;2004;52.452;13.120;2023-12-29T15:30:45;10.70;99.90
3980;DHT22;2004;52.452;13.120;2023-12-29T15:38:43;10.70;99.90
3980;DHT22;2004;52.452;13.120;2023-12-29T15:46:35;10.70;99.90
3980;DHT22;2004;52.452;13.120;2023-12-29T15:54:29;10.70;99.90
3980;DHT22;2004;52.452;13.120;2023-12-29T16:02:24;10.60;99.90
3980;DHT22;2004;52.452;13.120;2023-12-29T16:10:15;10.60;99.90
3980;DHT22;2004;52.452;13.120;2023-12-29T16:18:06;10.50;99.90
3980;DHT22;2004;52.452;13.120;2023-12-29T16:26:07;10.50;99.90
3980;DHT22;2004;52.452;13.120;2023-12-29T16:34:10;10.40;99.90
3980;DHT22;2004;52.452;13.120;2023-12-29T16:42:05;10.40;99.90
3980;DHT22;2004;52.452;13.120;2023-12-29T16:50:07;10.30;99.90
3980;DHT22;2004;52.452;13.120;2023-12-29T16:58:04;10.30;99.90
3980;DHT22;2004;52.452;13.120;2023-12-29T17:05:59;10.30;99.90
3980;DHT22;2004;52.452;13.120;2023-12-29T17:13:50;10.30;99.90
3980;DHT22;2004;52.452;13.120;2023-12-29T17:21:41;10.30;99.90
3980;DHT22;2004;52.452;13.120;2023-12-29T17:29:35;10.30;99.90
3980;DHT22;2004;52.452;13.120;2023-12-29T17:37:31;10.30;99.90
3980;DHT22;2004;52.452;13.120;2023-12-29T17:45:29;10.30;99.90
3980;DHT22;2004;52.452;13.120;2023-12-29T18:02:12;10.30;99.90
3980;DHT22;2004;52.452;13.120;2023-12-29T18:10:05;10.30;99.90
3980;DHT22;2004;52.452;13.120;2023-12-29T18:18:03;10.30;99.90
3980;DHT22;2004;52.452;13.120;2023-12-29T18:26:00;10.30;99.90
3980;DHT22;2004;52.452;13.120;2023-12-29T18:33:57;10.30;99.90
3980;DHT22;2004;52.452;13.120;2023-12-29T18:41:52;10.40;99.90
3980;DHT22;2004;52.452;13.120;2023-12-29T18:49:43;10.40;99.90
3980;DHT22;2004;52.452;13.120;2023-12-29T18:57:37;10.40;99.90
3980;DHT22;2004;52.452;13.120;2023-12-29T19:05:30;10.30;99.90
3980;DHT22;2004;52.452;13.120;2023-12-29T19:13:21;10.20;99.90
3980;DHT22;2004;52.452;13.120;2023-12-29T19:21:13;10.00;99.90
3980;DHT22;2004;52.452;13.120;2023-12-29T19:29:04;9.80;99.90
3980;DHT22;2004;52.452;13.120;2023-12-29T19:36:55;9.70;99.90
3980;DHT22;2004;52.452;13.120;2023-12-29T19:44:47;9.60;99.90
3980;DHT22;2004;52.452;13.120;2023-12-29T19:52:38;9.40;99.90
3980;DHT22;2004;52.452;13.120;2023-12-29T20:00:29;9.30;99.90
3980;DHT22;2004;52.452;13.120;2023-12-29T20:08:22;9.30;99.90
3980;DHT22;2004;52.452;13.120;2023-12-29T20:16:23;9.20;99.90
3980;DHT22;2004;52.452;13.120;2023-12-29T20:24:14;9.10;99.90
3980;DHT22;2004;52.452;13.120;2023-12-29T20:32:08;9.10;99.90
3980;DHT22;2004;52.452;13.120;2023-12-29T20:39:59;9.00;99.90
3980;DHT22;2004;52.452;13.120;2023-12-29T20:47:51;9.00;99.90
3980;DHT22;2004;52.452;13.120;2023-12-29T20:55:41;8.90;99.90
3980;DHT22;2004;52.452;13.120;2023-12-29T21:03:32;8.90;99.90
3980;DHT22;2004;52.452;13.120;2023-12-29T21:11:23;8.90;99.90
3980;DHT22;2004;52.452;13.120;2023-12-29T21:19:14;8.80;99.90
3980;DHT22;2004;52.452;13.120;2023-12-29T21:27:05;8.80;99.90
3980;DHT22;2004;52.452;13.120;2023-12-29T21:34:55;8.80;99.90
3980;DHT22;2004;52.452;13.120;2023-12-29T21:42:46;8.70;99.90
3980;DHT22;2004;52.452;13.120;2023-12-29T21:50:37;8.70;99.90
3980;DHT22;2004;52.452;13.120;2023-12-29T21:58:28;8.70;99.90
3980;DHT22;2004;52.452;13.120;2023-12-29T22:06:19;8.70;99.90
3980;DHT22;2004;52.452;13.120;2023-12-29T22:14:11;8.70;99.90
3980;DHT22;2004;52.452;13.120;2023-12-29T22:22:01;8.80;99.90
3980;DHT22;2004;52.452;13.120;2023-12-29T22:29:52;8.80;99.90
3980;DHT22;2004;52.452;13.120;2023-12-29T22:37:47;8.80;99.90
3980;DHT22;2004;52.452;13.120;2023-12-29T22:45:38;8.90;99.90
3980;DHT22;2004;52.452;13.120;2023-12-29T22:53:28;8.90;99.90
3980;DHT22;2004;52.452;13.120;2023-12-29T23:01:19;9.00;99.90
3980;DHT22;2004;52.452;13.120;2023-12-29T23:09:10;9.00;99.90
3980;DHT22;2004;52.452;13.120;2023-12-29T23:17:05;9.00;99.90
3980;DHT22;2004;52.452;13.120;2023-12-29T23:25:10;9.00;99.90
3980;DHT22;2004;52.452;13.120;2023-12-29T23:33:11;8.80;99.90
3980;DHT22;2004;52.452;13.120;2023-12-29T23:41:02;8.30;99.90
3980;DHT22;2004;52.452;13.120;2023-12-29T23:48:53;8.10;99.90
3980;DHT22;2004;52.452;13.120;2023-12-29T23:56:53;8.00;99.90
